sensor_id;sensor_type;location;lat;lon;timestamp;temperature;humidity
19039;DHT22;9652;49.014;12.052;2024-01-11T00:01:08;-0.80;68.20
19039;DHT22;9652;49.014;12.052;2024-01-11T00:03:37;-0.80;68.20
19039;DHT22;9652;49.014;12.052;2024-01-11T00:06:05;-0.90;68.10
19039;DHT22;9652;49.014;12.052;2024-01-11T00:08:32;-0.90;68.20
19039;DHT22;9652;49.014;12.052;2024-01-11T00:10:59;-0.90;68.20
19039;DHT22;9652;49.014;12.052;2024-01-11T00:13:26;-1.10;68.10
19039;DHT22;9652;49.014;12.052;2024-01-11T00:15:53;-0.90;68.30
19039;DHT22;9652;49.014;12.052;2024-01-11T00:18:20;-0.90;68.30
19039;DHT22;9652;49.014;12.052;2024-01-11T00:20:49;-0.90;68.30
19039;DHT22;9652;49.014;12.052;2024-01-11T00:23:17;-1.00;68.30
19039;DHT22;9652;49.014;12.052;2024-01-11T00:25:44;-0.90;68.30
19039;DHT22;9652;49.014;12.052;2024-01-11T00:28:11;-1.00;68.30
19039;DHT22;9652;49.014;12.052;2024-01-11T00:30:38;-1.00;68.40
19039;DHT22;9652;49.014;12.052;2024-01-11T00:33:05;-1.00;68.40
19039;DHT22;9652;49.014;12.052;2024-01-11T00:35:34;-1.00;68.50
19039;DHT22;9652;49.014;12.052;2024-01-11T00:38:03;-1.00;68.40
19039;DHT22;9652;49.014;12.052;2024-01-11T00:40:30;-1.00;68.60
19039;DHT22;9652;49.014;12.052;2024-01-11T00:42:57;-1.00;68.60
19039;DHT22;9652;49.014;12.052;2024-01-11T00:45:24;-1.00;68.60
19039;DHT22;9652;49.014;12.052;2024-01-11T00:47:51;-1.00;68.60
19039;DHT22;9652;49.014;12.052;2024-01-11T00:50:18;-1.00;68.60
19039;DHT22;9652;49.014;12.052;2024-01-11T00:52:45;-1.10;68.60
19039;DHT22;9652;49.014;12.052;2024-01-11T00:55:13;-1.10;68.60
19039;DHT22;9652;49.014;12.052;2024-01-11T00:57:41;-1.10;68.60
19039;DHT22;9652;49.014;12.052;2024-01-11T01:00:10;-1.10;68.60
19039;DHT22;9652;49.014;12.052;2024-01-11T01:02:39;-1.10;68.60
19039;DHT22;9652;49.014;12.052;2024-01-11T01:05:07;-1.10;68.60
19039;DHT22;9652;49.014;12.052;2024-01-11T01:07:35;-1.20;69.40
19039;DHT22;9652;49.014;12.052;2024-01-11T01:10:02;-1.20;68.60
19039;DHT22;9652;49.014;12.052;2024-01-11T01:12:30;-1.10;68.70
19039;DHT22;9652;49.014;12.052;2024-01-11T01:14:57;-1.20;68.60
19039;DHT22;9652;49.014;12.052;2024-01-11T01:17:24;-1.20;68.70
19039;DHT22;9652;49.014;12.052;2024-01-11T01:19:51;-1.20;68.80
19039;DHT22;9652;49.014;12.052;2024-01-11T01:22:18;-1.20;68.80
19039;DHT22;9652;49.014;12.052;2024-01-11T01:24:45;-1.20;68.80
19039;DHT22;9652;49.014;12.052;2024-01-11T01:27:12;-1.20;68.90
19039;DHT22;9652;49.014;12.052;2024-01-11T01:29:41;-1.20;68.90
19039;DHT22;9652;49.014;12.052;2024-01-11T01:32:08;-0.90;69.10
19039;DHT22;9652;49.014;12.052;2024-01-11T01:34:35;-1.20;68.90
19039;DHT22;9652;49.014;12.052;2024-01-11T01:37:02;-1.20;68.90
19039;DHT22;9652;49.014;12.052;2024-01-11T01:39:29;-1.00;68.90
19039;DHT22;9652;49.014;12.052;2024-01-11T01:41:56;-1.30;68.80
19039;DHT22;9652;49.014;12.052;2024-01-11T01:44:23;-1.30;68.80
19039;DHT22;9652;49.014;12.052;2024-01-11T01:46:52;-1.30;68.80
19039;DHT22;9652;49.014;12.052;2024-01-11T01:49:20;-1.30;68.80
19039;DHT22;9652;49.014;12.052;2024-01-11T01:51:48;-1.30;68.90
19039;DHT22;9652;49.014;12.052;2024-01-11T01:54:16;-1.30;68.80
19039;DHT22;9652;49.014;12.052;2024-01-11T01:56:44;-1.30;68.90
19039;DHT22;9652;49.014;12.052;2024-01-11T01:59:11;-1.30;68.90
19039;DHT22;9652;49.014;12.052;2024-01-11T02:01:40;-1.30;69.00
19039;DHT22;9652;49.014;12.052;2024-01-11T02:04:09;-1.30;69.00
19039;DHT22;9652;49.014;12.052;2024-01-11T02:06:36;-1.40;68.90
19039;DHT22;9652;49.014;12.052;2024-01-11T02:09:04;-1.30;68.90
19039;DHT22;9652;49.014;12.052;2024-01-11T02:11:34;-1.30;68.90
19039;DHT22;9652;49.014;12.052;2024-01-11T02:14:01;-1.40;68.90
19039;DHT22;9652;49.014;12.052;2024-01-11T02:16:29;-1.40;68.90
19039;DHT22;9652;49.014;12.052;2024-01-11T02:18:56;-1.40;68.90
19039;DHT22;9652;49.014;12.052;2024-01-11T02:21:25;-1.40;68.90
19039;DHT22;9652;49.014;12.052;2024-01-11T02:24:03;-1.40;68.90
19039;DHT22;9652;49.014;12.052;2024-01-11T02:26:30;-1.40;69.00
19039;DHT22;9652;49.014;12.052;2024-01-11T02:28:57;-1.40;69.10
19039;DHT22;9652;49.014;12.052;2024-01-11T02:31:24;-1.40;69.10
19039;DHT22;9652;49.014;12.052;2024-01-11T02:33:52;-1.40;69.10
19039;DHT22;9652;49.014;12.052;2024-01-11T02:36:20;-1.40;69.10
19039;DHT22;9652;49.014;12.052;2024-01-11T02:38:48;-1.40;69.10
19039;DHT22;9652;49.014;12.052;2024-01-11T02:41:20;-1.50;69.10
19039;DHT22;9652;49.014;12.052;2024-01-11T02:43:48;-1.50;69.10
19039;DHT22;9652;49.014;12.052;2024-01-11T02:46:16;-1.50;69.10
19039;DHT22;9652;49.014;12.052;2024-01-11T02:48:44;-1.50;69.10
19039;DHT22;9652;49.014;12.052;2024-01-11T02:51:11;-1.50;69.20
19039;DHT22;9652;49.014;12.052;2024-01-11T02:53:38;-1.50;69.20
19039;DHT22;9652;49.014;12.052;2024-01-11T02:56:05;-1.50;69.30
19039;DHT22;9652;49.014;12.052;2024-01-11T02:58:33;-1.50;69.30
19039;DHT22;9652;49.014;12.052;2024-01-11T03:01:00;-1.50;69.30
19039;DHT22;9652;49.014;12.052;2024-01-11T03:03:28;-1.50;69.30
19039;DHT22;9652;49.014;12.052;2024-01-11T03:05:55;-1.50;69.40
19039;DHT22;9652;49.014;12.052;2024-01-11T03:08:22;-1.50;69.40
19039;DHT22;9652;49.014;12.052;2024-01-11T03:10:49;-1.50;69.40
19039;DHT22;9652;49.014;12.052;2024-01-11T03:13:16;-1.50;69.40
19039;DHT22;9652;49.014;12.052;2024-01-11T03:15:44;-1.50;69.40
19039;DHT22;9652;49.014;12.052;2024-01-11T03:18:11;-1.50;69.30
19039;DHT22;9652;49.014;12.052;2024-01-11T03:20:38;-1.50;69.30
19039;DHT22;9652;49.014;12.052;2024-01-11T03:23:05;-1.50;69.30
19039;DHT22;9652;49.014;12.052;2024-01-11T03:25:32;-1.50;69.30
19039;DHT22;9652;49.014;12.052;2024-01-11T03:27:59;-1.50;69.20
19039;DHT22;9652;49.014;12.052;2024-01-11T03:30:26;-1.50;69.20
19039;DHT22;9652;49.014;12.052;2024-01-11T03:32:56;-1.50;69.20
19039;DHT22;9652;49.014;12.052;2024-01-11T03:35:23;-1.50;69.10
19039;DHT22;9652;49.014;12.052;2024-01-11T03:37:50;-1.50;69.10
19039;DHT22;9652;49.014;12.052;2024-01-11T03:40:17;-1.50;69.10
19039;DHT22;9652;49.014;12.052;2024-01-11T03:42:44;-1.50;69.10
19039;DHT22;9652;49.014;12.052;2024-01-11T03:45:11;-1.50;69.10
19039;DHT22;9652;49.014;12.052;2024-01-11T03:47:38;-1.50;69.10
19039;DHT22;9652;49.014;12.052;2024-01-11T03:50:07;-1.60;69.10
19039;DHT22;9652;49.014;12.052;2024-01-11T03:52:35;-1.60;69.10
19039;DHT22;9652;49.014;12.052;2024-01-11T03:55:02;-1.60;69.10
19039;DHT22;9652;49.014;12.052;2024-01-11T03:57:29;-1.60;69.20
19039;DHT22;9652;49.014;12.052;2024-01-11T03:59:56;-1.60;69.30
19039;DHT22;9652;49.014;12.052;2024-01-11T04:02:24;-1.60;69.30
19039;DHT22;9652;49.014;12.052;2024-01-11T04:04:51;-1.60;69.30
19039;DHT22;9652;49.014;12.052;2024-01-11T04:07:20;-1.60;69.30
19039;DHT22;9652;49.014;12.052;2024-01-11T04:09:47;-1.60;69.40
19039;DHT22;9652;49.014;12.052;2024-01-11T04:12:14;-1.60;69.30
19039;DHT22;9652;49.014;12.052;2024-01-11T04:14:41;-1.60;69.30
19039;DHT22;9652;49.014;12.052;2024-01-11T04:17:08;-1.60;69.30
19039;DHT22;9652;49.014;12.052;2024-01-11T04:19:36;-1.60;69.30
19039;DHT22;9652;49.014;12.052;2024-01-11T04:22:03;-1.70;69.20
19039;DHT22;9652;49.014;12.052;2024-01-11T04:24:31;-1.70;69.20
19039;DHT22;9652;49.014;12.052;2024-01-11T04:26:58;-1.70;69.20
19039;DHT22;9652;49.014;12.052;2024-01-11T04:29:25;-1.70;69.10
19039;DHT22;9652;49.014;12.052;2024-01-11T04:31:52;-1.70;69.20
19039;DHT22;9652;49.014;12.052;2024-01-11T04:34:19;-1.70;69.20
19039;DHT22;9652;49.014;12.052;2024-01-11T04:36:46;-1.70;70.00
19039;DHT22;9652;49.014;12.052;2024-01-11T04:39:13;-1.70;69.20
19039;DHT22;9652;49.014;12.052;2024-01-11T04:41:42;-1.80;69.20
19039;DHT22;9652;49.014;12.052;2024-01-11T04:44:10;-1.80;69.20
19039;DHT22;9652;49.014;12.052;2024-01-11T04:46:37;-1.80;69.20
19039;DHT22;9652;49.014;12.052;2024-01-11T04:49:04;-1.80;69.30
19039;DHT22;9652;49.014;12.052;2024-01-11T04:51:31;-1.80;69.30
19039;DHT22;9652;49.014;12.052;2024-01-11T04:53:58;-1.80;69.20
19039;DHT22;9652;49.014;12.052;2024-01-11T04:56:26;-1.80;69.30
19039;DHT22;9652;49.014;12.052;2024-01-11T04:58:56;-1.80;69.20
19039;DHT22;9652;49.014;12.052;2024-01-11T05:01:24;-1.80;69.20
19039;DHT22;9652;49.014;12.052;2024-01-11T05:03:51;-1.90;69.20
19039;DHT22;9652;49.014;12.052;2024-01-11T05:06:19;-1.80;69.20
19039;DHT22;9652;49.014;12.052;2024-01-11T05:08:49;-1.90;69.20
19039;DHT22;9652;49.014;12.052;2024-01-11T05:11:17;-1.90;69.20
19039;DHT22;9652;49.014;12.052;2024-01-11T05:13:45;-1.90;69.20
19039;DHT22;9652;49.014;12.052;2024-01-11T05:16:19;-1.90;69.30
19039;DHT22;9652;49.014;12.052;2024-01-11T05:18:48;-1.90;69.40
19039;DHT22;9652;49.014;12.052;2024-01-11T05:21:15;-1.90;69.40
19039;DHT22;9652;49.014;12.052;2024-01-11T05:23:42;-1.90;69.40
19039;DHT22;9652;49.014;12.052;2024-01-11T05:26:10;-1.90;69.50
19039;DHT22;9652;49.014;12.052;2024-01-11T05:28:37;-1.90;69.50
19039;DHT22;9652;49.014;12.052;2024-01-11T05:31:05;-1.90;69.50
19039;DHT22;9652;49.014;12.052;2024-01-11T05:33:35;-1.90;69.50
19039;DHT22;9652;49.014;12.052;2024-01-11T05:36:02;-1.90;69.50
19039;DHT22;9652;49.014;12.052;2024-01-11T05:38:30;-1.90;69.70
19039;DHT22;9652;49.014;12.052;2024-01-11T05:40:57;-1.90;69.60
19039;DHT22;9652;49.014;12.052;2024-01-11T05:43:25;-1.90;69.60
19039;DHT22;9652;49.014;12.052;2024-01-11T05:45:52;-1.90;69.60
19039;DHT22;9652;49.014;12.052;2024-01-11T05:48:19;-1.80;69.70
19039;DHT22;9652;49.014;12.052;2024-01-11T05:50:47;-1.90;69.60
19039;DHT22;9652;49.014;12.052;2024-01-11T05:53:14;-1.80;69.70
19039;DHT22;9652;49.014;12.052;2024-01-11T05:55:42;-1.90;69.70
19039;DHT22;9652;49.014;12.052;2024-01-11T05:58:09;-1.90;69.70
19039;DHT22;9652;49.014;12.052;2024-01-11T06:00:36;-1.80;69.80
19039;DHT22;9652;49.014;12.052;2024-01-11T06:03:04;-1.80;69.80
19039;DHT22;9652;49.014;12.052;2024-01-11T06:05:31;-1.80;69.80
19039;DHT22;9652;49.014;12.052;2024-01-11T06:07:59;-1.80;69.90
19039;DHT22;9652;49.014;12.052;2024-01-11T06:10:26;-1.80;69.90
19039;DHT22;9652;49.014;12.052;2024-01-11T06:12:53;-1.80;70.10
19039;DHT22;9652;49.014;12.052;2024-01-11T06:15:22;-1.80;69.80
19039;DHT22;9652;49.014;12.052;2024-01-11T06:17:49;-1.80;69.80
19039;DHT22;9652;49.014;12.052;2024-01-11T06:20:16;-1.90;69.70
19039;DHT22;9652;49.014;12.052;2024-01-11T06:22:43;-1.80;69.70
19039;DHT22;9652;49.014;12.052;2024-01-11T06:25:11;-1.80;69.70
19039;DHT22;9652;49.014;12.052;2024-01-11T06:27:38;-1.90;69.60
19039;DHT22;9652;49.014;12.052;2024-01-11T06:30:07;-1.80;69.60
19039;DHT22;9652;49.014;12.052;2024-01-11T06:32:34;-1.80;69.70
19039;DHT22;9652;49.014;12.052;2024-01-11T06:35:02;-1.90;69.50
19039;DHT22;9652;49.014;12.052;2024-01-11T06:37:29;-1.90;69.60
19039;DHT22;9652;49.014;12.052;2024-01-11T06:39:57;-1.90;69.70
19039;DHT22;9652;49.014;12.052;2024-01-11T06:42:25;-1.90;69.70
19039;DHT22;9652;49.014;12.052;2024-01-11T06:44:52;-1.90;69.70
19039;DHT22;9652;49.014;12.052;2024-01-11T06:47:20;-1.90;69.70
19039;DHT22;9652;49.014;12.052;2024-01-11T06:49:47;-1.90;69.80
19039;DHT22;9652;49.014;12.052;2024-01-11T06:52:14;-1.90;69.70
19039;DHT22;9652;49.014;12.052;2024-01-11T06:54:41;-1.90;69.70
19039;DHT22;9652;49.014;12.052;2024-01-11T06:57:08;-1.90;69.70
19039;DHT22;9652;49.014;12.052;2024-01-11T06:59:36;-1.90;69.70
19039;DHT22;9652;49.014;12.052;2024-01-11T07:02:03;-1.90;69.70
19039;DHT22;9652;49.014;12.052;2024-01-11T07:04:30;-1.90;69.70
19039;DHT22;9652;49.014;12.052;2024-01-11T07:06:58;-1.90;69.80
19039;DHT22;9652;49.014;12.052;2024-01-11T07:09:25;-1.90;69.90
19039;DHT22;9652;49.014;12.052;2024-01-11T07:11:52;-1.90;69.80
19039;DHT22;9652;49.014;12.052;2024-01-11T07:14:20;-1.90;69.80
19039;DHT22;9652;49.014;12.052;2024-01-11T07:16:48;-1.90;69.80
19039;DHT22;9652;49.014;12.052;2024-01-11T07:19:15;-1.90;69.90
19039;DHT22;9652;49.014;12.052;2024-01-11T07:21:43;-1.90;69.90
19039;DHT22;9652;49.014;12.052;2024-01-11T07:24:10;-1.90;69.90
19039;DHT22;9652;49.014;12.052;2024-01-11T07:26:37;-1.90;69.90
19039;DHT22;9652;49.014;12.052;2024-01-11T07:29:04;-1.80;70.00
19039;DHT22;9652;49.014;12.052;2024-01-11T07:31:31;-1.80;70.00
19039;DHT22;9652;49.014;12.052;2024-01-11T07:33:59;-1.80;70.10
19039;DHT22;9652;49.014;12.052;2024-01-11T07:36:26;-1.80;70.20
19039;DHT22;9652;49.014;12.052;2024-01-11T07:38:53;-1.70;70.20
19039;DHT22;9652;49.014;12.052;2024-01-11T07:41:21;-1.70;70.40
19039;DHT22;9652;49.014;12.052;2024-01-11T07:43:48;-1.70;70.40
19039;DHT22;9652;49.014;12.052;2024-01-11T07:46:15;-1.70;70.40
19039;DHT22;9652;49.014;12.052;2024-01-11T07:48:42;-1.70;70.40
19039;DHT22;9652;49.014;12.052;2024-01-11T07:51:11;-1.70;70.40
19039;DHT22;9652;49.014;12.052;2024-01-11T07:53:38;-1.60;70.50
19039;DHT22;9652;49.014;12.052;2024-01-11T07:56:06;-1.60;70.50
19039;DHT22;9652;49.014;12.052;2024-01-11T07:58:33;-1.60;70.50
19039;DHT22;9652;49.014;12.052;2024-01-11T08:01:03;-1.50;70.60
19039;DHT22;9652;49.014;12.052;2024-01-11T08:03:30;-1.50;70.60
19039;DHT22;9652;49.014;12.052;2024-01-11T08:05:58;-1.50;70.60
19039;DHT22;9652;49.014;12.052;2024-01-11T08:16:42;-1.30;70.80
19039;DHT22;9652;49.014;12.052;2024-01-11T08:30:22;-1.10;71.00
19039;DHT22;9652;49.014;12.052;2024-01-11T09:07:12;-0.30;71.40
19039;DHT22;9652;49.014;12.052;2024-01-11T09:37:07;0.40;71.00
19039;DHT22;9652;49.014;12.052;2024-01-11T09:39:34;0.50;71.20
19039;DHT22;9652;49.014;12.052;2024-01-11T09:42:06;0.50;71.30
19039;DHT22;9652;49.014;12.052;2024-01-11T09:44:35;0.60;72.20
19039;DHT22;9652;49.014;12.052;2024-01-11T09:47:06;0.70;71.50
19039;DHT22;9652;49.014;12.052;2024-01-11T09:49:36;0.70;71.40
19039;DHT22;9652;49.014;12.052;2024-01-11T09:52:07;0.70;71.30
19039;DHT22;9652;49.014;12.052;2024-01-11T09:54:36;0.80;71.20
19039;DHT22;9652;49.014;12.052;2024-01-11T09:57:06;0.90;71.10
19039;DHT22;9652;49.014;12.052;2024-01-11T09:59:36;0.90;71.10
19039;DHT22;9652;49.014;12.052;2024-01-11T10:02:03;1.00;71.20
19039;DHT22;9652;49.014;12.052;2024-01-11T10:04:33;1.20;71.30
19039;DHT22;9652;49.014;12.052;2024-01-11T10:07:03;1.10;71.20
19039;DHT22;9652;49.014;12.052;2024-01-11T10:09:33;1.20;71.20
19039;DHT22;9652;49.014;12.052;2024-01-11T10:12:00;1.30;71.40
19039;DHT22;9652;49.014;12.052;2024-01-11T10:14:29;1.30;71.30
19039;DHT22;9652;49.014;12.052;2024-01-11T10:16:57;1.40;71.30
19039;DHT22;9652;49.014;12.052;2024-01-11T10:19:24;1.50;71.40
19039;DHT22;9652;49.014;12.052;2024-01-11T10:21:51;1.60;71.40
19039;DHT22;9652;49.014;12.052;2024-01-11T10:24:19;1.70;71.20
19039;DHT22;9652;49.014;12.052;2024-01-11T10:26:50;1.80;71.10
19039;DHT22;9652;49.014;12.052;2024-01-11T10:29:17;1.80;71.10
19039;DHT22;9652;49.014;12.052;2024-01-11T10:31:44;1.90;71.10
19039;DHT22;9652;49.014;12.052;2024-01-11T10:34:11;2.00;71.10
19039;DHT22;9652;49.014;12.052;2024-01-11T10:36:38;2.10;71.20
19039;DHT22;9652;49.014;12.052;2024-01-11T10:39:07;2.20;71.10
19039;DHT22;9652;49.014;12.052;2024-01-11T10:41:39;2.20;70.80
19039;DHT22;9652;49.014;12.052;2024-01-11T10:44:16;2.30;70.60
19039;DHT22;9652;49.014;12.052;2024-01-11T10:46:48;2.40;70.40
19039;DHT22;9652;49.014;12.052;2024-01-11T10:49:18;2.40;70.50
19039;DHT22;9652;49.014;12.052;2024-01-11T10:51:53;2.50;70.50
19039;DHT22;9652;49.014;12.052;2024-01-11T10:54:26;2.50;70.20
19039;DHT22;9652;49.014;12.052;2024-01-11T10:56:55;2.60;70.40
19039;DHT22;9652;49.014;12.052;2024-01-11T10:59:26;2.60;70.30
19039;DHT22;9652;49.014;12.052;2024-01-11T11:01:54;2.70;70.20
19039;DHT22;9652;49.014;12.052;2024-01-11T11:04:24;2.80;70.30
19039;DHT22;9652;49.014;12.052;2024-01-11T11:06:55;2.80;70.30
19039;DHT22;9652;49.014;12.052;2024-01-11T11:09:25;2.80;70.10
19039;DHT22;9652;49.014;12.052;2024-01-11T11:11:56;3.10;70.10
19039;DHT22;9652;49.014;12.052;2024-01-11T11:14:28;3.00;70.00
19039;DHT22;9652;49.014;12.052;2024-01-11T11:16:55;2.90;69.60
19039;DHT22;9652;49.014;12.052;2024-01-11T11:19:23;3.00;69.70
19039;DHT22;9652;49.014;12.052;2024-01-11T11:21:50;3.00;69.80
19039;DHT22;9652;49.014;12.052;2024-01-11T11:24:17;3.10;69.90
19039;DHT22;9652;49.014;12.052;2024-01-11T11:26:45;3.10;69.90
19039;DHT22;9652;49.014;12.052;2024-01-11T11:29:12;3.20;69.80
19039;DHT22;9652;49.014;12.052;2024-01-11T11:31:44;3.20;69.60
19039;DHT22;9652;49.014;12.052;2024-01-11T11:34:13;3.20;69.60
19039;DHT22;9652;49.014;12.052;2024-01-11T11:36:42;3.20;69.40
19039;DHT22;9652;49.014;12.052;2024-01-11T11:39:15;3.30;69.40
19039;DHT22;9652;49.014;12.052;2024-01-11T11:41:45;3.30;69.30
19039;DHT22;9652;49.014;12.052;2024-01-11T11:44:16;3.30;69.30
19039;DHT22;9652;49.014;12.052;2024-01-11T11:46:45;3.30;70.10
19039;DHT22;9652;49.014;12.052;2024-01-11T11:49:13;3.40;69.10
19039;DHT22;9652;49.014;12.052;2024-01-11T11:51:40;3.40;69.10
19039;DHT22;9652;49.014;12.052;2024-01-11T11:54:11;3.40;68.90
19039;DHT22;9652;49.014;12.052;2024-01-11T11:56:40;3.50;68.80
19039;DHT22;9652;49.014;12.052;2024-01-11T11:59:08;3.40;68.60
19039;DHT22;9652;49.014;12.052;2024-01-11T12:01:37;3.50;68.80
19039;DHT22;9652;49.014;12.052;2024-01-11T12:04:08;3.50;68.60
19039;DHT22;9652;49.014;12.052;2024-01-11T12:06:35;3.50;68.40
19039;DHT22;9652;49.014;12.052;2024-01-11T12:09:02;3.70;68.60
19039;DHT22;9652;49.014;12.052;2024-01-11T12:11:29;3.60;69.40
19039;DHT22;9652;49.014;12.052;2024-01-11T12:13:58;3.60;68.60
19039;DHT22;9652;49.014;12.052;2024-01-11T12:16:25;3.60;68.50
19039;DHT22;9652;49.014;12.052;2024-01-11T12:18:52;3.60;68.30
19039;DHT22;9652;49.014;12.052;2024-01-11T12:21:21;3.60;68.30
19039;DHT22;9652;49.014;12.052;2024-01-11T12:23:48;3.60;68.30
19039;DHT22;9652;49.014;12.052;2024-01-11T12:26:15;3.60;68.40
19039;DHT22;9652;49.014;12.052;2024-01-11T12:28:47;3.70;68.40
19039;DHT22;9652;49.014;12.052;2024-01-11T12:31:16;3.70;68.40
19039;DHT22;9652;49.014;12.052;2024-01-11T12:33:44;3.70;68.30
19039;DHT22;9652;49.014;12.052;2024-01-11T12:36:12;3.70;68.30
19039;DHT22;9652;49.014;12.052;2024-01-11T12:38:47;3.70;68.30
19039;DHT22;9652;49.014;12.052;2024-01-11T12:41:15;3.70;67.90
19039;DHT22;9652;49.014;12.052;2024-01-11T12:43:42;3.70;68.10
19039;DHT22;9652;49.014;12.052;2024-01-11T12:46:09;3.70;68.10
19039;DHT22;9652;49.014;12.052;2024-01-11T12:48:36;3.70;68.10
19039;DHT22;9652;49.014;12.052;2024-01-11T12:51:04;3.70;68.10
19039;DHT22;9652;49.014;12.052;2024-01-11T12:53:31;3.70;67.90
19039;DHT22;9652;49.014;12.052;2024-01-11T12:56:05;3.70;67.90
19039;DHT22;9652;49.014;12.052;2024-01-11T12:58:36;3.70;67.60
19039;DHT22;9652;49.014;12.052;2024-01-11T13:01:03;3.70;68.60
19039;DHT22;9652;49.014;12.052;2024-01-11T13:03:30;3.70;67.90
19039;DHT22;9652;49.014;12.052;2024-01-11T13:05:57;3.70;67.80
19039;DHT22;9652;49.014;12.052;2024-01-11T13:08:25;3.70;67.70
19039;DHT22;9652;49.014;12.052;2024-01-11T13:10:53;3.70;67.70
19039;DHT22;9652;49.014;12.052;2024-01-11T13:13:21;3.70;67.70
19039;DHT22;9652;49.014;12.052;2024-01-11T13:15:48;3.70;67.60
19039;DHT22;9652;49.014;12.052;2024-01-11T13:18:16;3.70;67.70
19039;DHT22;9652;49.014;12.052;2024-01-11T13:20:43;3.70;67.60
19039;DHT22;9652;49.014;12.052;2024-01-11T13:23:14;3.70;67.70
19039;DHT22;9652;49.014;12.052;2024-01-11T13:25:44;3.60;67.30
19039;DHT22;9652;49.014;12.052;2024-01-11T13:28:12;3.60;67.50
19039;DHT22;9652;49.014;12.052;2024-01-11T13:30:42;3.60;67.70
19039;DHT22;9652;49.014;12.052;2024-01-11T13:33:12;3.70;67.70
19039;DHT22;9652;49.014;12.052;2024-01-11T13:35:40;3.70;67.70
19039;DHT22;9652;49.014;12.052;2024-01-11T13:38:08;3.70;67.60
19039;DHT22;9652;49.014;12.052;2024-01-11T13:40:36;3.60;67.70
19039;DHT22;9652;49.014;12.052;2024-01-11T13:43:05;3.60;67.60
19039;DHT22;9652;49.014;12.052;2024-01-11T13:45:32;3.60;67.60
19039;DHT22;9652;49.014;12.052;2024-01-11T13:48:03;3.60;67.60
19039;DHT22;9652;49.014;12.052;2024-01-11T13:50:31;3.60;67.40
19039;DHT22;9652;49.014;12.052;2024-01-11T13:52:58;3.60;67.30
19039;DHT22;9652;49.014;12.052;2024-01-11T13:55:27;3.70;67.50
19039;DHT22;9652;49.014;12.052;2024-01-11T13:57:56;3.60;67.40
19039;DHT22;9652;49.014;12.052;2024-01-11T14:00:23;3.60;67.60
19039;DHT22;9652;49.014;12.052;2024-01-11T14:02:50;3.60;67.60
19039;DHT22;9652;49.014;12.052;2024-01-11T14:05:18;3.70;67.60
19039;DHT22;9652;49.014;12.052;2024-01-11T14:07:46;3.70;67.60
19039;DHT22;9652;49.014;12.052;2024-01-11T14:10:14;3.70;67.60
19039;DHT22;9652;49.014;12.052;2024-01-11T14:12:41;3.70;68.40
19039;DHT22;9652;49.014;12.052;2024-01-11T14:15:09;3.70;67.40
19039;DHT22;9652;49.014;12.052;2024-01-11T14:17:39;3.70;67.50
19039;DHT22;9652;49.014;12.052;2024-01-11T14:20:07;3.70;67.50
19039;DHT22;9652;49.014;12.052;2024-01-11T14:22:40;3.70;67.40
19039;DHT22;9652;49.014;12.052;2024-01-11T14:25:08;3.70;67.40
19039;DHT22;9652;49.014;12.052;2024-01-11T14:27:36;3.70;67.50
19039;DHT22;9652;49.014;12.052;2024-01-11T14:30:05;3.70;67.60
19039;DHT22;9652;49.014;12.052;2024-01-11T14:32:32;3.80;67.40
19039;DHT22;9652;49.014;12.052;2024-01-11T14:35:00;3.80;67.40
19039;DHT22;9652;49.014;12.052;2024-01-11T14:37:30;3.80;67.40
19039;DHT22;9652;49.014;12.052;2024-01-11T14:39:59;3.80;67.20
19039;DHT22;9652;49.014;12.052;2024-01-11T14:42:26;3.80;67.20
19039;DHT22;9652;49.014;12.052;2024-01-11T14:44:54;3.80;67.10
19039;DHT22;9652;49.014;12.052;2024-01-11T14:47:22;3.80;67.10
19039;DHT22;9652;49.014;12.052;2024-01-11T14:49:49;3.80;66.90
19039;DHT22;9652;49.014;12.052;2024-01-11T14:52:16;3.80;67.00
19039;DHT22;9652;49.014;12.052;2024-01-11T14:54:44;3.80;67.00
19039;DHT22;9652;49.014;12.052;2024-01-11T14:57:13;3.80;67.00
19039;DHT22;9652;49.014;12.052;2024-01-11T14:59:40;3.80;66.90
19039;DHT22;9652;49.014;12.052;2024-01-11T15:02:08;3.70;66.90
19039;DHT22;9652;49.014;12.052;2024-01-11T15:04:35;3.70;66.70
19039;DHT22;9652;49.014;12.052;2024-01-11T15:07:03;3.70;66.70
19039;DHT22;9652;49.014;12.052;2024-01-11T15:09:30;3.70;66.80
19039;DHT22;9652;49.014;12.052;2024-01-11T15:11:57;3.70;66.90
19039;DHT22;9652;49.014;12.052;2024-01-11T15:14:27;3.60;66.80
19039;DHT22;9652;49.014;12.052;2024-01-11T15:16:54;3.60;66.70
19039;DHT22;9652;49.014;12.052;2024-01-11T15:19:21;3.60;66.70
19039;DHT22;9652;49.014;12.052;2024-01-11T15:21:48;3.60;66.60
19039;DHT22;9652;49.014;12.052;2024-01-11T15:24:16;3.60;66.50
19039;DHT22;9652;49.014;12.052;2024-01-11T15:26:44;3.60;66.50
19039;DHT22;9652;49.014;12.052;2024-01-11T15:29:11;3.50;66.40
19039;DHT22;9652;49.014;12.052;2024-01-11T15:31:40;3.50;66.30
19039;DHT22;9652;49.014;12.052;2024-01-11T15:34:11;3.40;66.20
19039;DHT22;9652;49.014;12.052;2024-01-11T15:36:38;3.40;66.30
19039;DHT22;9652;49.014;12.052;2024-01-11T15:39:06;3.40;66.20
19039;DHT22;9652;49.014;12.052;2024-01-11T15:41:34;3.30;66.20
19039;DHT22;9652;49.014;12.052;2024-01-11T15:44:01;3.30;66.20
19039;DHT22;9652;49.014;12.052;2024-01-11T15:46:29;3.20;66.20
19039;DHT22;9652;49.014;12.052;2024-01-11T15:48:58;3.20;66.20
19039;DHT22;9652;49.014;12.052;2024-01-11T15:51:25;3.10;66.10
19039;DHT22;9652;49.014;12.052;2024-01-11T15:53:52;3.10;66.30
19039;DHT22;9652;49.014;12.052;2024-01-11T15:56:19;3.10;66.30
19039;DHT22;9652;49.014;12.052;2024-01-11T15:58:46;3.00;66.20
19039;DHT22;9652;49.014;12.052;2024-01-11T16:01:13;3.00;66.30
19039;DHT22;9652;49.014;12.052;2024-01-11T16:03:40;2.90;66.20
19039;DHT22;9652;49.014;12.052;2024-01-11T16:06:09;2.90;66.30
19039;DHT22;9652;49.014;12.052;2024-01-11T16:08:47;2.80;66.30
19039;DHT22;9652;49.014;12.052;2024-01-11T16:11:14;2.80;66.50
19039;DHT22;9652;49.014;12.052;2024-01-11T16:13:41;2.80;66.50
19039;DHT22;9652;49.014;12.052;2024-01-11T16:16:11;2.70;66.60
19039;DHT22;9652;49.014;12.052;2024-01-11T16:18:38;2.70;66.60
19039;DHT22;9652;49.014;12.052;2024-01-11T16:21:06;2.70;66.70
19039;DHT22;9652;49.014;12.052;2024-01-11T16:23:36;2.60;66.60
19039;DHT22;9652;49.014;12.052;2024-01-11T16:26:06;2.60;66.70
19039;DHT22;9652;49.014;12.052;2024-01-11T16:28:35;2.60;66.70
19039;DHT22;9652;49.014;12.052;2024-01-11T16:31:03;2.60;66.80
19039;DHT22;9652;49.014;12.052;2024-01-11T16:33:30;2.50;66.80
19039;DHT22;9652;49.014;12.052;2024-01-11T16:35:57;2.50;66.90
19039;DHT22;9652;49.014;12.052;2024-01-11T16:38:24;2.50;67.00
19039;DHT22;9652;49.014;12.052;2024-01-11T16:40:53;2.40;67.00
19039;DHT22;9652;49.014;12.052;2024-01-11T16:43:21;2.40;67.00
19039;DHT22;9652;49.014;12.052;2024-01-11T16:45:48;2.40;67.10
19039;DHT22;9652;49.014;12.052;2024-01-11T16:48:16;2.40;67.10
19039;DHT22;9652;49.014;12.052;2024-01-11T16:50:43;2.40;67.20
19039;DHT22;9652;49.014;12.052;2024-01-11T16:53:12;2.40;67.20
19039;DHT22;9652;49.014;12.052;2024-01-11T16:55:40;2.40;67.30
19039;DHT22;9652;49.014;12.052;2024-01-11T16:58:09;2.40;67.40
19039;DHT22;9652;49.014;12.052;2024-01-11T17:00:36;2.40;67.60
19039;DHT22;9652;49.014;12.052;2024-01-11T17:03:03;2.40;67.80